Time;durP1;ratioP1;P1;durP2;ratioP2;P2;SDS_P1;SDS_P2;PMS_P1;PMS_P2;Temp;Humidity;BMP_temperature;BMP_pressure;BME280_temperature;BME280_humidity;BME280_pressure;Samples;Min_cycle;Max_cycle;Signal;HPM_P1;HPM_P2
2022/04/08 00:02:08;;;;;;;1.37;1.27;;;;;;;9.47;100.00;94842.91;5030227;27;101884;-59
2022/04/08 00:04:35;;;;;;;0.80;0.70;;;;;;;9.46;100.00;94837.88;5033425;28;102929;-59
2022/04/08 00:07:02;;;;;;;0.93;0.77;;;;;;;9.48;100.00;94843.69;5028759;28;102025;-59
2022/04/08 00:09:29;;;;;;;0.60;0.60;;;;;;;9.40;100.00;94839.78;5028983;28;105873;-59
2022/04/08 00:11:57;;;;;;;0.20;0.20;;;;;;;9.35;100.00;94829.22;5028472;28;105652;-59
2022/04/08 00:14:26;;;;;;;0.50;0.50;;;;;;;9.28;100.00;94834.06;5030000;27;101802;-59
2022/04/08 00:16:52;;;;;;;0.50;0.50;;;;;;;9.26;100.00;94830.13;5028807;28;104048;-59
2022/04/08 00:19:20;;;;;;;0.37;0.33;;;;;;;9.26;100.00;94851.34;5028136;28;103750;-59
2022/04/08 00:21:49;;;;;;;0.40;0.40;;;;;;;9.23;100.00;94851.88;5029983;27;101800;-59
2022/04/08 00:24:17;;;;;;;0.50;0.30;;;;;;;9.23;100.00;94854.53;5028668;28;104865;-59
2022/04/08 00:26:45;;;;;;;0.47;0.40;;;;;;;9.19;100.00;94864.13;5031461;28;104050;-59
2022/04/08 00:29:12;;;;;;;0.63;0.43;;;;;;;9.21;100.00;94851.38;5028728;28;105205;-59
2022/04/08 00:31:41;;;;;;;0.73;0.30;;;;;;;9.19;100.00;94834.94;5027956;28;105322;-59
2022/04/08 00:34:08;;;;;;;0.53;0.40;;;;;;;9.16;100.00;94841.59;5030169;28;101698;-59
2022/04/08 00:36:34;;;;;;;0.40;0.40;;;;;;;9.14;100.00;94843.75;5028594;28;103650;-59
2022/04/08 00:39:01;;;;;;;0.37;0.37;;;;;;;9.10;100.00;94837.41;5027669;28;103717;-59
2022/04/08 00:41:28;;;;;;;0.67;0.40;;;;;;;9.09;100.00;94840.31;5028547;28;101983;-59
2022/04/08 00:43:56;;;;;;;0.40;0.30;;;;;;;9.06;100.00;94851.50;5028670;28;105821;-59
2022/04/08 00:46:23;;;;;;;0.47;0.30;;;;;;;9.13;100.00;94841.38;5030148;27;105859;-59
2022/04/08 00:48:51;;;;;;;0.27;0.27;;;;;;;9.13;100.00;94846.66;5035227;28;101967;-59
2022/04/08 00:51:17;;;;;;;0.30;0.30;;;;;;;9.07;100.00;94839.81;5031351;28;105433;-59
2022/04/08 00:53:45;;;;;;;0.53;0.37;;;;;;;9.06;100.00;94846.97;5031932;28;101872;-59
2022/04/08 00:56:13;;;;;;;0.30;0.30;;;;;;;9.05;100.00;94847.28;5031468;28;103625;-59
2022/04/08 00:58:41;;;;;;;0.40;0.40;;;;;;;9.03;100.00;94855.50;5031202;28;105103;-59
2022/04/08 01:01:08;;;;;;;1.30;0.40;;;;;;;9.08;100.00;94860.75;5031197;28;101912;-59
2022/04/08 01:03:34;;;;;;;1.23;0.40;;;;;;;9.03;100.00;94854.69;5031864;28;103497;-59
2022/04/08 01:06:03;;;;;;;0.50;0.40;;;;;;;8.95;100.00;94861.38;5031096;28;105073;-58
2022/04/08 01:08:34;;;;;;;1.30;0.53;;;;;;;8.95;100.00;94860.59;5031748;28;101886;-59
2022/04/08 01:11:03;;;;;;;0.40;0.40;;;;;;;8.91;100.00;94872.81;5034564;28;105471;-59
2022/04/08 01:13:30;;;;;;;0.37;0.37;;;;;;;8.94;100.00;94869.63;5031707;28;101803;-59
2022/04/08 01:15:57;;;;;;;0.67;0.60;;;;;;;8.95;100.00;94871.22;5031322;28;105696;-59
2022/04/08 01:18:24;;;;;;;2.80;0.60;;;;;;;8.98;100.00;94868.00;5030840;28;105748;-60
2022/04/08 01:20:51;;;;;;;1.57;0.40;;;;;;;8.91;100.00;94875.47;5031454;28;101934;-59
2022/04/08 01:23:20;;;;;;;0.40;0.40;;;;;;;8.98;100.00;94871.44;5031482;28;105582;-59
2022/04/08 01:25:49;;;;;;;0.50;0.50;;;;;;;9.05;100.00;94863.97;5030560;28;105346;-59
2022/04/08 01:28:16;;;;;;;0.83;0.53;;;;;;;8.99;100.00;94874.91;5031429;28;101974;-59
2022/04/08 01:30:44;;;;;;;0.60;0.40;;;;;;;8.98;100.00;94875.94;5034292;28;104938;-59
2022/04/08 01:33:11;;;;;;;0.63;0.53;;;;;;;9.03;100.00;94873.25;5031059;28;102093;-59
2022/04/08 01:35:38;;;;;;;0.40;0.40;;;;;;;8.97;100.00;94883.13;5031232;28;106436;-59
2022/04/08 01:38:05;;;;;;;0.37;0.37;;;;;;;9.01;100.00;94891.31;5030673;28;105815;-59
2022/04/08 01:40:33;;;;;;;0.40;0.40;;;;;;;9.00;100.00;94897.69;5031323;28;101997;-59
2022/04/08 01:43:01;;;;;;;1.07;0.53;;;;;;;8.96;100.00;94899.28;5031138;28;105230;-59
2022/04/08 01:45:28;;;;;;;0.40;0.40;;;;;;;8.98;100.00;94902.44;5030386;28;105057;-59
2022/04/08 01:47:55;;;;;;;0.50;0.50;;;;;;;8.93;100.00;94899.84;5031041;28;101858;-59
2022/04/08 01:50:22;;;;;;;0.40;0.40;;;;;;;8.89;100.00;94890.88;5032290;28;102355;-59
2022/04/08 01:52:49;;;;;;;0.40;0.40;;;;;;;8.91;100.00;94908.09;5033797;28;105513;-59
2022/04/08 01:55:16;;;;;;;0.57;0.57;;;;;;;8.87;100.00;94882.38;5030464;28;105164;-59
2022/04/08 01:57:44;;;;;;;0.30;0.30;;;;;;;8.88;100.00;94889.28;5029404;28;105404;-59
2022/04/08 02:00:13;;;;;;;0.40;0.40;;;;;;;8.83;100.00;94899.94;5030520;28;102258;-59
2022/04/08 02:02:40;;;;;;;0.40;0.40;;;;;;;8.82;100.00;94891.16;5030699;28;105316;-59
2022/04/08 02:05:08;;;;;;;0.30;0.30;;;;;;;8.80;100.00;94901.28;5030099;28;105694;-59
2022/04/08 02:07:36;;;;;;;0.20;0.20;;;;;;;8.80;100.00;94900.47;5031001;28;101897;-59
2022/04/08 02:10:03;;;;;;;0.63;0.30;;;;;;;8.80;100.00;94916.38;5030654;28;105525;-59
2022/04/08 02:12:30;;;;;;;0.63;0.30;;;;;;;8.75;100.00;94919.03;5030036;28;106918;-59
2022/04/08 02:14:57;;;;;;;0.93;0.40;;;;;;;8.81;100.00;94934.66;5034252;28;102098;-59
2022/04/08 02:17:28;;;;;;;0.50;0.50;;;;;;;8.77;100.00;94932.84;5031172;28;103130;-59
2022/04/08 02:19:55;;;;;;;0.50;0.50;;;;;;;8.84;100.00;94944.69;5031942;27;102156;-59
2022/04/08 02:22:23;;;;;;;0.63;0.40;;;;;;;8.87;100.00;94927.44;5031918;28;104059;-59
2022/04/08 02:24:51;;;;;;;0.37;0.37;;;;;;;8.82;100.00;94938.06;5029965;28;104125;-59
2022/04/08 02:27:18;;;;;;;2.10;0.40;;;;;;;8.69;100.00;94949.28;5030209;28;101851;-59
2022/04/08 02:29:45;;;;;;;0.20;0.20;;;;;;;8.51;100.00;94934.78;5031898;28;102928;-59
2022/04/08 02:32:12;;;;;;;0.40;0.40;;;;;;;8.39;100.00;94942.28;5031025;28;103060;-59
2022/04/08 02:34:41;;;;;;;0.73;0.60;;;;;;;8.24;100.00;94944.97;5030219;28;101882;-59
2022/04/08 02:37:08;;;;;;;1.30;0.70;;;;;;;8.15;100.00;94945.78;5034379;28;102817;-58
2022/04/08 02:39:35;;;;;;;2.07;0.70;;;;;;;8.07;100.00;94970.16;5030132;28;101911;-59
2022/04/08 02:42:02;;;;;;;2.77;0.90;;;;;;;8.02;100.00;94970.94;5031689;27;102415;-59
2022/04/08 02:44:30;;;;;;;3.33;1.27;;;;;;;7.97;100.00;94975.47;5029570;28;104676;-59
2022/04/08 02:46:58;;;;;;;2.50;0.90;;;;;;;7.89;100.00;94979.47;5029879;28;101791;-59
2022/04/08 02:49:25;;;;;;;2.00;0.77;;;;;;;7.78;100.00;94995.59;5030224;28;105234;-59
2022/04/08 02:51:54;;;;;;;1.90;1.10;;;;;;;7.74;100.00;95005.94;5029568;28;104687;-59
2022/04/08 02:54:22;;;;;;;2.03;0.90;;;;;;;7.70;100.00;94996.16;5029646;28;101943;-59
2022/04/08 02:56:49;;;;;;;1.53;0.87;;;;;;;7.60;100.00;95017.31;5029942;28;105221;-59
2022/04/08 02:59:16;;;;;;;1.83;1.03;;;;;;;7.59;100.00;95010.44;5032429;28;104993;-59
2022/04/08 03:01:43;;;;;;;3.17;0.90;;;;;;;7.54;100.00;95013.09;5029841;28;105099;-59
2022/04/08 03:04:09;;;;;;;1.53;1.33;;;;;;;7.52;100.00;95009.94;5029464;28;105425;-59
2022/04/08 03:06:36;;;;;;;3.03;1.13;;;;;;;7.45;100.00;95031.34;5029910;28;101942;-59
2022/04/08 03:09:05;;;;;;;2.83;1.20;;;;;;;7.43;100.00;95035.31;5029418;27;106398;-59
2022/04/08 03:11:33;;;;;;;4.30;1.17;;;;;;;7.38;100.00;95019.44;5029325;28;105066;-59
2022/04/08 03:14:01;;;;;;;3.43;1.40;;;;;;;7.39;100.00;95036.88;5029825;28;101992;-59
2022/04/08 03:16:29;;;;;;;2.97;0.90;;;;;;;7.32;100.00;95015.97;5029608;28;105164;-59
2022/04/08 03:18:55;;;;;;;1.60;0.90;;;;;;;7.33;100.00;95011.50;5028919;28;105369;-59
2022/04/08 03:21:24;;;;;;;2.87;1.03;;;;;;;7.34;100.00;95018.34;5033307;28;101653;-59
2022/04/08 03:23:51;;;;;;;3.13;1.10;;;;;;;7.27;100.00;95023.13;5030351;28;102850;-59
2022/04/08 03:26:20;;;;;;;2.77;1.40;;;;;;;7.31;100.00;95032.13;5029517;28;102389;-59
2022/04/08 03:28:47;;;;;;;1.40;1.00;;;;;;;7.30;100.00;95049.03;5029400;28;104841;-59
2022/04/08 03:31:16;;;;;;;2.33;1.00;;;;;;;7.28;100.00;95061.72;5029381;28;104111;-59
2022/04/08 03:33:43;;;;;;;2.13;1.47;;;;;;;7.24;100.00;95052.72;5028892;28;102248;-59
2022/04/08 03:36:09;;;;;;;2.43;1.30;;;;;;;7.22;100.00;95046.91;5028929;28;105570;-59
2022/04/08 03:38:36;;;;;;;3.83;0.97;;;;;;;7.21;100.00;95046.09;5028784;28;105547;-59
2022/04/08 03:41:04;;;;;;;3.67;1.10;;;;;;;7.23;100.00;95037.91;5032224;28;102260;-59
2022/04/08 03:43:34;;;;;;;2.97;1.20;;;;;;;7.20;100.00;95033.94;5028426;28;105156;-58
2022/04/08 03:46:01;;;;;;;2.67;1.10;;;;;;;7.19;100.00;95039.50;5029043;28;102234;-59
2022/04/08 03:48:28;;;;;;;3.27;1.20;;;;;;;7.20;100.00;95049.03;5029367;28;104032;-58
2022/04/08 03:50:56;;;;;;;2.13;1.00;;;;;;;7.27;100.00;95046.91;5028519;28;105774;-58
2022/04/08 03:53:23;;;;;;;2.70;1.17;;;;;;;7.26;100.00;95047.97;5028586;28;102154;-58
2022/04/08 03:55:50;;;;;;;2.20;1.30;;;;;;;7.29;100.00;95061.47;5028569;28;105250;-58
2022/04/08 03:58:17;;;;;;;2.10;1.20;;;;;;;7.24;100.00;95063.28;5028447;28;104930;-58
2022/04/08 04:00:46;;;;;;;2.33;1.10;;;;;;;7.24;100.00;95064.09;5028596;28;101952;-58
2022/04/08 04:03:13;;;;;;;2.20;1.17;;;;;;;7.23;100.00;95069.63;5031791;28;105275;-59
2022/04/08 04:05:40;;;;;;;1.67;1.00;;;;;;;7.28;100.00;95072.28;5029103;28;101839;-59
2022/04/08 04:08:09;;;;;;;2.27;1.10;;;;;;;7.26;100.00;95069.13;5028973;28;105854;-58
2022/04/08 04:10:36;;;;;;;3.00;1.30;;;;;;;7.27;100.00;95079.44;5028306;28;105352;-58
2022/04/08 04:13:03;;;;;;;2.47;1.00;;;;;;;7.22;100.00;95084.72;5028850;28;101966;-58
2022/04/08 04:15:30;;;;;;;1.13;1.00;;;;;;;7.24;100.00;95098.47;5028753;28;104817;-58
2022/04/08 04:17:58;;;;;;;2.77;1.30;;;;;;;7.22;100.00;95094.50;5028212;28;105534;-59
2022/04/08 04:20:26;;;;;;;5.80;1.77;;;;;;;7.20;100.00;95102.66;5029454;28;101779;-59
2022/04/08 04:22:54;;;;;;;1.90;1.10;;;;;;;7.23;100.00;95109.28;5029010;28;104998;-58
2022/04/08 04:25:21;;;;;;;1.93;1.23;;;;;;;7.20;100.00;95101.91;5031538;28;105756;-58
2022/04/08 04:27:48;;;;;;;4.13;1.07;;;;;;;7.18;100.00;95106.63;5028286;28;105952;-59
2022/04/08 04:30:15;;;;;;;4.93;1.40;;;;;;;7.17;100.00;95113.78;5028005;28;105467;-59
2022/04/08 04:32:41;;;;;;;4.07;1.20;;;;;;;7.19;100.00;95110.88;5028562;28;101722;-58
2022/04/08 04:35:11;;;;;;;3.60;1.00;;;;;;;7.16;100.00;95114.84;5028464;28;104810;-59
2022/04/08 04:37:38;;;;;;;3.00;1.27;;;;;;;7.13;100.00;95109.25;5027932;28;105043;-59
2022/04/08 04:40:08;;;;;;;1.00;0.90;;;;;;;7.13;100.00;95109.25;5028631;28;102354;-59
2022/04/08 04:42:35;;;;;;;2.20;1.10;;;;;;;7.16;100.00;95111.41;5028323;28;105494;-59
2022/04/08 04:45:02;;;;;;;3.03;1.60;;;;;;;7.15;100.00;95123.81;5029018;28;102591;-58
2022/04/08 04:47:29;;;;;;;2.97;1.40;;;;;;;7.16;100.00;95114.03;5031650;28;101806;-59
2022/04/08 04:49:56;;;;;;;2.97;1.23;;;;;;;7.11;100.00;95114.81;5027743;28;105410;-58
2022/04/08 04:52:25;;;;;;;1.80;1.07;;;;;;;7.12;100.00;95118.25;5029632;28;101774;-58
2022/04/08 04:54:52;;;;;;;2.63;1.20;;;;;;;7.10;100.00;95125.66;5027714;28;103562;-59
2022/04/08 04:57:19;;;;;;;1.80;1.10;;;;;;;7.12;100.00;95131.47;5027751;28;106342;-59
2022/04/08 04:59:46;;;;;;;3.17;1.10;;;;;;;7.12;100.00;95134.91;5028118;28;101834;-59
2022/04/08 05:02:13;;;;;;;2.47;1.00;;;;;;;7.11;100.00;95133.31;5027853;28;105200;-59
2022/04/08 05:04:40;;;;;;;3.57;1.57;;;;;;;7.14;100.00;95134.66;5027650;28;105329;-59
2022/04/08 05:07:07;;;;;;;2.40;1.10;;;;;;;7.10;100.00;95146.78;5028344;28;101853;-59
2022/04/08 05:09:40;;;;;;;2.10;1.10;;;;;;;7.12;100.00;95142.03;5030694;28;105200;-59
2022/04/08 05:12:08;;;;;;;4.27;1.30;;;;;;;7.14;100.00;95137.31;5028066;28;101844;-59
2022/04/08 05:14:36;;;;;;;3.30;1.77;;;;;;;7.17;100.00;95142.84;5029457;28;102627;-59
2022/04/08 05:17:03;;;;;;;2.97;1.20;;;;;;;7.09;100.00;95145.97;5027280;28;103861;-59
2022/04/08 05:19:30;;;;;;;1.80;1.40;;;;;;;7.12;100.00;95147.31;5028094;28;101872;-59
2022/04/08 05:21:59;;;;;;;4.97;1.80;;;;;;;7.12;100.00;95140.19;5028039;28;105231;-59
2022/04/08 05:24:26;;;;;;;4.00;1.73;;;;;;;7.17;100.00;95131.47;5027352;28;104319;-59
2022/04/08 05:26:55;;;;;;;6.00;2.17;;;;;;;7.15;100.00;95136.25;5027909;28;101817;-59
2022/04/08 05:29:22;;;;;;;3.70;1.70;;;;;;;7.13;100.00;95139.13;5027923;28;105297;-59
2022/04/08 05:31:50;;;;;;;4.47;1.50;;;;;;;7.13;100.00;95154.19;5030124;27;101968;-58
2022/04/08 05:34:18;;;;;;;2.37;1.60;;;;;;;7.09;100.00;95151.28;5031486;28;103691;-58
2022/04/08 05:36:45;;;;;;;4.10;1.80;;;;;;;7.12;100.00;95157.88;5030741;28;105773;-59
2022/04/08 05:39:12;;;;;;;3.20;1.60;;;;;;;7.09;100.00;95143.34;5031146;28;101935;-58
2022/04/08 05:41:40;;;;;;;5.07;1.90;;;;;;;7.09;100.00;95153.13;5031044;28;105328;-60
2022/04/08 05:44:09;;;;;;;4.07;2.10;;;;;;;7.10;100.00;95152.06;5030431;28;105616;-60
2022/04/08 05:46:37;;;;;;;4.20;1.53;;;;;;;7.08;100.00;95156.81;5031126;28;101814;-60
2022/04/08 05:49:05;;;;;;;4.53;1.73;;;;;;;7.08;100.00;95148.88;5031055;28;105231;-60
2022/04/08 05:51:32;;;;;;;3.80;1.43;;;;;;;7.07;100.00;95148.09;5034057;28;105616;-60
2022/04/08 05:54:00;;;;;;;3.43;1.60;;;;;;;7.10;100.00;95152.06;5030765;28;105721;-60
2022/04/08 05:56:27;;;;;;;5.53;1.80;;;;;;;7.07;100.00;95150.75;5030341;28;105111;-60
2022/04/08 05:58:54;;;;;;;3.90;1.60;;;;;;;7.10;100.00;95160.00;5030956;28;101811;-60
2022/04/08 06:01:28;;;;;;;2.93;1.63;;;;;;;7.09;100.00;95169.00;5030621;28;105291;-60
2022/04/08 06:03:55;;;;;;;1.97;1.10;;;;;;;7.10;100.00;95167.94;5030507;28;107026;-59
2022/04/08 06:06:23;;;;;;;3.27;1.20;;;;;;;7.12;100.00;95166.63;5028055;28;102551;-58
2022/04/08 06:08:50;;;;;;;2.33;1.30;;;;;;;7.15;100.00;95178.53;5030498;28;105552;-58
2022/04/08 06:11:17;;;;;;;4.93;1.43;;;;;;;7.10;100.00;95184.56;5030121;28;105141;-58
2022/04/08 06:13:44;;;;;;;3.40;1.50;;;;;;;7.14;100.00;95176.94;5034088;28;101844;-58
2022/04/08 06:16:13;;;;;;;3.80;1.63;;;;;;;7.21;100.00;95182.78;5029389;28;105617;-58
2022/04/08 06:18:41;;;;;;;4.27;1.57;;;;;;;7.19;100.00;95177.75;5029181;28;101770;-59
2022/04/08 06:21:08;;;;;;;3.23;1.50;;;;;;;7.21;100.00;95177.50;5029963;27;102796;-59
2022/04/08 06:23:36;;;;;;;1.60;1.10;;;;;;;7.23;100.00;95180.66;5029930;28;102779;-59
2022/04/08 06:26:03;;;;;;;2.67;1.20;;;;;;;7.23;100.00;95191.25;5028757;28;101771;-59
2022/04/08 06:28:30;;;;;;;4.23;1.80;;;;;;;7.33;100.00;95191.28;5029701;28;104041;-59
2022/04/08 06:30:59;;;;;;;2.97;1.50;;;;;;;7.43;100.00;95181.56;5027556;28;105774;-59
2022/04/08 06:33:26;;;;;;;3.77;1.50;;;;;;;7.51;100.00;95188.16;5028372;28;102606;-59
2022/04/08 06:35:54;;;;;;;2.30;1.20;;;;;;;7.45;100.00;95186.56;5031179;28;105380;-59
2022/04/08 06:38:21;;;;;;;3.47;2.27;;;;;;;7.54;100.00;95192.94;5028612;28;101921;-59
2022/04/08 06:40:49;;;;;;;2.80;1.90;;;;;;;7.55;100.00;95190.06;5030892;28;102636;-59
2022/04/08 06:43:17;;;;;;;3.73;2.20;;;;;;;7.58;100.00;95183.44;5029167;28;105298;-59
2022/04/08 06:45:44;;;;;;;4.07;1.60;;;;;;;7.55;100.00;95183.97;5029774;28;101835;-59
2022/04/08 06:48:11;;;;;;;4.77;1.93;;;;;;;7.71;100.00;95182.94;5030070;28;102659;-59
2022/04/08 06:50:39;;;;;;;4.90;2.20;;;;;;;7.82;100.00;95187.19;5029278;28;103747;-58
2022/04/08 06:53:08;;;;;;;2.10;1.90;;;;;;;7.87;100.00;95188.03;5030024;28;101772;-58
2022/04/08 06:55:36;;;;;;;2.87;1.50;;;;;;;7.91;100.00;95188.28;5029879;28;105483;-59
2022/04/08 06:58:04;;;;;;;4.43;1.97;;;;;;;7.94;100.00;95187.75;5032522;28;104862;-59
2022/04/08 07:00:32;;;;;;;3.83;1.60;;;;;;;7.93;100.00;95183.50;5029777;28;104939;-59
2022/04/08 07:02:59;;;;;;;2.60;1.37;;;;;;;7.93;100.00;95186.16;5029454;28;105877;-59
2022/04/08 07:05:28;;;;;;;2.67;1.23;;;;;;;7.86;100.00;95185.63;5030164;28;101810;-58
2022/04/08 07:07:56;;;;;;;1.90;1.60;;;;;;;8.02;100.00;95184.59;5030859;28;102512;-59
2022/04/08 07:10:24;;;;;;;2.90;1.63;;;;;;;8.11;100.00;95183.00;5029297;28;105327;-59
2022/04/08 07:12:51;;;;;;;3.37;1.63;;;;;;;8.13;100.00;95183.53;5029702;28;102045;-58
2022/04/08 07:15:18;;;;;;;3.47;2.00;;;;;;;8.27;100.00;95174.84;5027872;28;105158;-59
2022/04/08 07:17:46;;;;;;;3.17;1.80;;;;;;;8.33;100.00;95171.13;5028875;28;104979;-59
2022/04/08 07:20:14;;;;;;;2.23;1.47;;;;;;;8.43;100.00;95157.88;5031035;28;101912;-59
2022/04/08 07:22:41;;;;;;;3.63;1.60;;;;;;;8.36;100.00;95157.38;5027163;28;105710;-59
2022/04/08 07:25:09;;;;;;;2.67;1.50;;;;;;;8.47;100.00;95152.84;5027091;28;103041;-59
2022/04/08 07:27:45;;;;;;;3.83;1.50;;;;;;;8.40;100.00;95144.38;5029147;28;106396;-59
2022/04/08 07:30:12;;;;;;;3.07;1.40;;;;;;;8.70;100.00;95149.63;5027114;28;103825;-59
2022/04/08 07:32:39;;;;;;;2.83;1.33;;;;;;;8.69;100.00;95142.72;5028636;28;101972;-59
2022/04/08 07:35:08;;;;;;;2.30;1.33;;;;;;;8.70;100.00;95142.47;5027546;28;105665;-59
2022/04/08 07:37:36;;;;;;;2.63;1.80;;;;;;;8.70;100.00;95133.72;5028393;28;106540;-59
2022/04/08 07:40:06;;;;;;;4.30;1.70;;;;;;;8.79;100.00;95137.41;5032716;28;102017;-59
2022/04/08 07:42:33;;;;;;;2.20;1.27;;;;;;;8.87;100.00;95118.28;5026729;28;106429;-59
2022/04/08 07:45:02;;;;;;;2.83;1.60;;;;;;;9.02;100.00;95123.56;5029329;28;102015;-59
2022/04/08 07:47:29;;;;;;;4.50;1.80;;;;;;;9.17;100.00;95124.28;5026934;28;105642;-59
2022/04/08 07:49:58;;;;;;;2.50;1.13;;;;;;;9.17;100.00;95123.50;5028183;28;105181;-59
2022/04/08 07:52:25;;;;;;;3.27;1.40;;;;;;;9.23;100.00;95117.09;5009091;28;102033;-59
2022/04/08 07:54:53;;;;;;;2.30;1.40;;;;;;;9.26;100.00;95120.00;5009094;28;102416;-59
2022/04/08 07:57:20;;;;;;;1.20;1.10;;;;;;;9.19;100.00;95111.56;5025908;28;104958;-59
2022/04/08 07:59:47;;;;;;;2.43;1.20;;;;;;;9.11;100.00;95119.28;5025577;28;103089;-59
2022/04/08 08:02:16;;;;;;;1.23;1.13;;;;;;;9.14;100.00;95106.28;5031443;28;105643;-59
2022/04/08 08:04:43;;;;;;;2.77;1.77;;;;;;;9.12;100.00;95108.41;5028817;28;102067;-59
2022/04/08 08:07:10;;;;;;;2.77;1.23;;;;;;;9.08;100.00;95107.34;5028889;28;103560;-59
2022/04/08 08:09:37;;;;;;;2.43;1.27;;;;;;;9.27;100.00;95096.94;5028026;28;104036;-59
2022/04/08 08:12:04;;;;;;;2.63;1.37;;;;;;;9.17;100.00;95092.44;5028630;28;102213;-59
2022/04/08 08:14:32;;;;;;;1.97;1.37;;;;;;;9.31;100.00;95088.16;5028551;28;106154;-59
2022/04/08 08:16:59;;;;;;;2.67;1.27;;;;;;;9.69;100.00;95081.28;5026302;28;105143;-59
2022/04/08 08:19:28;;;;;;;2.00;1.00;;;;;;;9.72;100.00;95083.38;5028634;28;101888;-59
2022/04/08 08:21:55;;;;;;;1.63;1.00;;;;;;;10.00;100.00;95080.78;5026758;28;105083;-59
2022/04/08 08:24:23;;;;;;;2.17;1.20;;;;;;;10.31;100.00;95073.38;5031057;28;106308;-59
2022/04/08 08:26:50;;;;;;;2.20;0.90;;;;;;;9.76;100.00;95073.81;5026680;28;103936;-59
2022/04/08 08:29:17;;;;;;;1.63;1.07;;;;;;;9.82;100.00;95073.47;5026033;28;106317;-59
2022/04/08 08:31:44;;;;;;;2.17;0.80;;;;;;;9.86;100.00;95069.22;5028482;28;101809;-59
2022/04/08 08:34:11;;;;;;;1.53;1.03;;;;;;;9.59;100.00;95057.47;5029128;28;102550;-59
2022/04/08 08:36:40;;;;;;;2.27;1.00;;;;;;;9.43;100.00;95058.66;5026517;28;105516;-59
2022/04/08 08:39:07;;;;;;;2.00;1.20;;;;;;;9.62;100.00;95062.22;5029030;28;102087;-59
2022/04/08 08:41:35;;;;;;;1.30;1.20;;;;;;;9.77;100.00;95060.25;5028415;28;103971;-59
2022/04/08 08:44:02;;;;;;;1.03;0.93;;;;;;;10.12;100.00;95057.34;5027692;28;105538;-59
2022/04/08 08:46:34;;;;;;;1.40;1.00;;;;;;;10.24;100.00;95056.97;5031889;28;101794;-59
2022/04/08 08:49:03;;;;;;;1.47;1.17;;;;;;;9.99;100.00;95054.50;5025713;28;105815;-59
2022/04/08 08:51:33;;;;;;;0.90;0.80;;;;;;;9.72;100.00;95041.72;5028166;28;101911;-59
2022/04/08 08:54:02;;;;;;;1.63;0.97;;;;;;;9.86;100.00;95044.53;5028087;28;105222;-59
2022/04/08 08:56:29;;;;;;;2.10;1.40;;;;;;;9.92;100.00;95046.84;5025975;28;105058;-59
2022/04/08 08:58:56;;;;;;;1.23;1.10;;;;;;;10.11;100.00;95039.03;5027624;28;102943;-59
2022/04/08 09:01:22;;;;;;;2.00;1.20;;;;;;;10.19;100.00;95033.13;5028017;28;104119;-59
2022/04/08 09:03:49;;;;;;;2.03;1.40;;;;;;;10.38;100.00;95028.66;5028632;28;103036;-59
2022/04/08 09:06:17;;;;;;;1.43;0.97;;;;;;;10.17;100.00;95027.28;5030074;27;101836;-59
2022/04/08 09:08:55;;;;;;;1.87;1.33;;;;;;;10.25;100.00;95024.03;5032735;28;104098;-59
2022/04/08 09:11:26;;;;;;;1.93;1.20;;;;;;;10.33;100.00;95026.84;5031043;28;102869;-59
2022/04/08 09:13:54;;;;;;;1.93;1.20;;;;;;;10.36;100.00;95007.69;5029913;28;105500;-59
2022/04/08 09:16:27;;;;;;;1.80;1.10;;;;;;;10.75;100.00;95002.19;5030225;28;104351;-59
2022/04/08 09:18:54;;;;;;;1.37;1.27;;;;;;;10.85;100.00;94994.09;5031450;28;101907;-59
2022/04/08 09:21:23;;;;;;;1.53;1.20;;;;;;;10.80;100.00;94996.81;5029402;28;105254;-59
2022/04/08 09:23:50;;;;;;;2.77;1.30;;;;;;;10.83;100.00;94989.06;5031908;28;102938;-59
2022/04/08 09:26:17;;;;;;;1.43;1.30;;;;;;;10.91;100.00;94987.63;5031379;28;101907;-59
2022/04/08 09:28:45;;;;;;;1.47;1.00;;;;;;;10.91;100.00;94977.78;5031002;28;105104;-59
2022/04/08 09:31:18;;;;;;;1.47;1.20;;;;;;;10.88;100.00;94977.56;5033157;28;105101;-59
2022/04/08 09:33:50;;;;;;;2.63;1.17;;;;;;;10.81;100.00;94961.97;5029949;28;106212;-59
2022/04/08 09:36:27;;;;;;;1.43;1.13;;;;;;;10.61;100.00;94964.88;5031369;28;101830;-59
2022/04/08 09:38:54;;;;;;;1.57;1.40;;;;;;;10.64;100.00;94966.19;5032510;27;101717;-58
2022/04/08 09:41:21;;;;;;;3.00;1.17;;;;;;;10.69;100.00;94964.22;5032628;28;102544;-59
2022/04/08 09:43:50;;;;;;;1.63;1.10;;;;;;;10.76;100.00;94962.03;5028008;28;105903;-59
2022/04/08 09:46:18;;;;;;;2.30;1.43;;;;;;;11.01;100.00;94963.56;5030351;28;102283;-59
2022/04/08 09:48:46;;;;;;;2.77;1.30;;;;;;;11.11;100.00;94961.56;5031736;28;102852;-59
2022/04/08 09:51:20;;;;;;;3.30;1.10;;;;;;;11.11;100.00;94942.13;5034863;28;103017;-59
2022/04/08 09:53:51;;;;;;;3.07;1.20;;;;;;;11.39;100.00;94927.88;5032464;28;102504;-59
2022/04/08 09:56:23;;;;;;;1.43;1.07;;;;;;;11.41;100.00;94920.38;5031791;28;103134;-59
2022/04/08 09:58:58;;;;;;;1.43;0.90;;;;;;;11.57;100.00;94909.22;5032718;27;102058;-58
2022/04/08 10:01:28;;;;;;;4.40;1.30;;;;;;;11.67;100.00;94905.63;5030441;28;105257;-59
2022/04/08 10:03:55;;;;;;;1.20;1.10;;;;;;;11.81;100.00;94895.75;5031686;28;102879;-59
2022/04/08 10:06:23;;;;;;;3.47;1.50;;;;;;;12.10;100.00;94881.09;5030792;28;101952;-59
2022/04/08 10:08:50;;;;;;;1.47;1.13;;;;;;;12.10;100.00;94881.09;5032023;27;102468;-59
2022/04/08 10:11:28;;;;;;;1.37;1.20;;;;;;;12.18;100.00;94875.09;5031590;28;101693;-59
2022/04/08 10:14:09;;;;;;;1.47;1.00;;;;;;;12.24;100.00;94865.09;5035583;28;101692;-59
2022/04/08 10:16:38;;;;;;;2.00;0.90;;;;;;;12.42;100.00;94854.34;5031258;28;103100;-59
2022/04/08 10:19:07;;;;;;;1.23;1.10;;;;;;;12.70;100.00;94855.84;5031277;27;101848;-59
2022/04/08 10:21:39;;;;;;;2.10;0.97;;;;;;;12.83;100.00;94862.25;5030503;28;106854;-59
2022/04/08 10:24:13;;;;;;;1.70;1.30;;;;;;;12.66;100.00;94852.22;5031259;27;102714;-58
2022/04/08 10:26:56;;;;;;;1.20;1.00;;;;;;;12.85;100.00;94855.53;5032172;27;101910;-59
2022/04/08 10:29:24;;;;;;;2.07;1.30;;;;;;;12.86;100.00;94837.66;5030435;28;105404;-59
2022/04/08 10:32:01;;;;;;;1.37;1.23;;;;;;;12.95;100.00;94830.50;5029248;28;103857;-59
2022/04/08 10:34:32;;;;;;;2.37;1.13;;;;;;;12.88;100.00;94816.78;5030306;28;101824;-59
2022/04/08 10:37:00;;;;;;;1.33;0.90;;;;;;;13.00;100.00;94819.72;5034733;28;102561;-59
2022/04/08 10:39:27;;;;;;;1.13;0.83;;;;;;;13.01;100.00;94818.63;5031691;27;102049;-58
2022/04/08 10:41:56;;;;;;;2.40;0.90;;;;;;;13.01;100.00;94807.97;5030226;28;104877;-58
2022/04/08 10:44:41;;;;;;;1.03;1.03;;;;;;;12.74;100.00;94818.69;5030642;27;102541;-59
2022/04/08 10:47:11;;;;;;;1.63;0.90;;;;;;;13.05;100.00;94799.06;5030688;27;101894;-58
2022/04/08 10:49:50;;;;;;;1.87;1.00;;;;;;;12.78;100.00;94817.03;5031808;27;102480;-59
2022/04/08 10:52:18;;;;;;;1.00;1.00;;;;;;;12.81;100.00;94806.53;5029845;28;103759;-59
2022/04/08 10:54:46;;;;;;;1.30;1.10;;;;;;;12.78;100.00;94795.69;5031235;28;101839;-59
2022/04/08 10:57:13;;;;;;;1.97;1.00;;;;;;;12.81;100.00;94795.09;5031413;27;102295;-59
2022/04/08 10:59:53;;;;;;;1.97;1.20;;;;;;;12.98;100.00;94785.34;5032600;28;106101;-58
2022/04/08 11:02:20;;;;;;;1.30;0.90;;;;;;;12.85;100.00;94793.38;5031093;28;104541;-59
2022/04/08 11:04:47;;;;;;;2.13;1.17;;;;;;;12.91;100.00;94768.94;5030480;27;102644;-59
2022/04/08 11:07:14;;;;;;;3.17;1.40;;;;;;;12.97;100.00;94742.97;5031401;28;101882;-58
2022/04/08 11:09:43;;;;;;;1.13;1.03;;;;;;;13.34;100.00;94724.66;5031368;27;102462;-59
2022/04/08 11:12:10;;;;;;;1.43;1.20;;;;;;;13.39;100.00;94742.41;5030522;28;103074;-59
2022/04/08 11:14:38;;;;;;;1.20;1.10;;;;;;;13.65;100.00;94711.25;5029474;28;102008;-58
2022/04/08 11:17:07;;;;;;;1.97;1.20;;;;;;;13.69;100.00;94720.22;5029470;28;105553;-59
2022/04/08 11:19:34;;;;;;;4.53;1.37;;;;;;;13.58;100.00;94729.63;5030524;27;102283;-59
2022/04/08 11:22:01;;;;;;;2.07;1.17;;;;;;;13.95;100.00;94708.50;5034531;27;101996;-59
2022/04/08 11:24:32;;;;;;;1.80;1.17;;;;;;;13.76;100.00;94702.66;5030371;28;103195;-59
2022/04/08 11:26:59;;;;;;;1.97;1.23;;;;;;;14.07;100.00;94694.56;5031101;27;102290;-59
2022/04/08 11:29:27;;;;;;;2.43;1.37;;;;;;;13.45;100.00;94693.13;5030687;27;101791;-59